AirNav   ATP
 
 1563 users online  

12LA KML Airport
Sulphur, Louisiana, USA

GOING TO SULPHUR?


FAA INFORMATION EFFECTIVE 20 JULY 2017

Location

FAA Identifier: 12LA
Lat/Long: 30-16-33.3000N / 093-21-26.7000W
30-16.555000N / 093-21.445000W
30.2759167 / -93.3574167
(estimated)
Elevation: 20 ft. / 6 m (estimated)
Variation: 03E (2000)
From city: 2 miles N of SULPHUR, LA
Time zone: UTC -5 (UTC -6 during Standard Time)
Zip code: 70663

Airport Operations

Airport use: Private use. Permission required prior to landing
Activation date: 02/2002
Control tower: no
ARTCC: HOUSTON CENTER
FSS: DE RIDDER FLIGHT SERVICE STATION
Attendance: UNATNDD
Wind indicator: yes
Segmented circle: no

Airport Communications

WX AWOS-3PT at UXL (9 nm S): 118.175 (337-558-5321)
WX ASOS at LCH (11 nm SE): PHONE 337-477-3371
WX AWOS-3PT at 5R8 (12 nm NW): 121.2 (337-786-1518)
WX AWOS-3 at CWF (12 nm E): 120.0 (337-436-3452)

Nearby radio navigation aids

VOR radial/distance  VOR name  Freq  Var
LCHr295/15.3LAKE CHARLES VORTAC113.4007E
BPTr053/39.5BEAUMONT VOR/DME114.5007E

 
NDB name  Hdg/Dist  Freq  Var  ID
SULPHUR031/5.727804EAUR .- ..- .-.
MOSSY254/8.641804ECW -.-. .--
ORANGE056/25.821105EORG --- .-. --.
DE RIDDER178/28.638504EDXB -.. -..- -...

Airport Services

Fuel available: 100 115

Runway Information

Runway 18/36

Dimensions: 3500 x 85 ft. / 1067 x 26 m
Surface: turf
RUNWAY 18  RUNWAY 36
Traffic pattern: leftleft
Obstructions: none120 ft. pline, 1290 ft. from runway

Airport Ownership and Management from official FAA records

Ownership: Privately-owned
Owner: KRAUSE & MANAGAN LUMBER CO., LLC
PO BOX 163
SULPHUR, LA 70663
Phone 337-515-4704
Manager: W.R. HAYS, JR
PO BOX 163
SULPHUR, LA 70663
Phone 337-515-4704

Airport Operational Statistics

Aircraft based on the field: 6
Single engine airplanes: 3
Multi engine airplanes: 1
Helicopters: 2
    

Instrument Procedures

There are no published instrument procedures at 12LA.

Some nearby airports with instrument procedures:

KUXL - Southland Field Airport (9 nm S)
KLCH - Lake Charles Regional Airport (11 nm SE)
5R8 - De Quincy Industrial Airpark (12 nm NW)
KCWF - Chennault International Airport (12 nm E)
KORG - Orange County Airport (26 nm SW)
 
Loc | Ops | Rwys | IFR | FBO | Links
Com | Nav | Svcs | Stats | Notes


 
Area around 12LA (KML Airport)
 
Road maps at: MapQuest Bing Google
 
Aerial photo
WARNING: Photo may not be current or correct
Aerial photo of 12LA (KML Airport)
Photo by WR Hays, Jr.
Photo taken 24-May-2011
looking south.

Do you have a better or more recent aerial photo of KML Airport that you would like to share? If so, please send us your photo.

 
Sectional chart

 
Airport distance calculator
Flying to KML Airport? Find the distance to fly.

From to 12LA

Sunrise and sunset
Times for 25-Jul-2017
 Local
(UTC-5)
 Zulu
(UTC)
Morning civil twilight06:0211:02
Sunrise06:2911:29
Sunset20:1101:11
Evening civil twilight20:3801:38

Current date and time
Zulu (UTC)  25-Jul-2017 17:50:31
Local (UTC-5)  25-Jul-2017 12:50:31
 
METAR
KUXL 
9nm S 
251730Z AUTO 00000KT 10SM BKN025 BKN029 31/25 A3015 RMK AO2 T03090248
KLCH 
11nm SE 
251653Z VRB05KT 10SM BKN024 30/26 A3014 RMK AO2 SLP214 T03000256 $
KCWF 
11nm E 
251555Z 00000KT 7SM SCT020 BKN100 29/26 A3015
K5R8 
12nm NW 
251735Z AUTO 17006KT 10SM CLR 29/25 A3014 RMK AO2 T02900247
TAF
KLCH 
11nm SE 
251130Z 2512/2612 VRB03KT P6SM VCSH BKN120 FM251500 21006KT P6SM FEW100 BKN200
NOTAMs
Click for the latest NOTAMs
NOTAMs are issued by the DoD/FAA and will open in a separate window not controlled by AirNav.

 

 
 

Would you like to see your business listed on this page?

 If your business provides an interesting product or service to pilots, flight crews, aircraft, or users of the KML Airport, you should consider listing it here.  To start the listing process, click on the button below
 
Add a business
 

Other Pages about KML Airport

Update a link
 
Copyright © AirNav, LLC. All rights reserved. Privacy Policy  Contact